Boryslav — ENLB — position and weather

sailwx.info

Track history (hours):
 
Tides and Currents Weather Stations Pressure Air Temp Water Temp Dewpoint Dewpoint Depression Visibility Wind Speed Wind Dir Waves Ship Positions

Boryslav

Last reported at 2015-Jun-28 11:12 UTC. Time now 2015-Jun-30 03:27 UTC.
Position N 48°04' E 035°06'.

Length 86 m; draft 2.3 m.

Type: Cargo ship. MMSI: 272088700.

Date/timePositionNaut miles runAvg speedWind from/ knotsBaromVisibWave heightAir tempDewpointWater temp
2015-Jun-28 11:12N 48°04' E 035°06'3 4.8
2015-Jun-28 10:33N 48°01' E 035°08'5 5.0
2015-Jun-28 09:33N 47°56' E 035°07'4 3.8
2015-Jun-28 08:33N 47°53' E 035°06'0 0.5
2015-Jun-28 07:33N 47°52' E 035°06'0 0.0
2015-Jun-28 06:34N 47°52' E 035°06'0 0.5
2015-Jun-28 05:33N 47°52' E 035°05'4 3.9
2015-Jun-28 04:33N 47°49' E 035°09'0 0.5
2015-Jun-28 03:33N 47°48' E 035°09'0 0.0
2015-Jun-28 02:33N 47°48' E 035°09'0 0.0
2015-Jun-28 01:33N 47°48' E 035°09'0 0.0
2015-Jun-28 00:33N 47°48' E 035°09'0 0.0
2015-Jun-27 23:33N 47°48' E 035°09'0 0.0
2015-Jun-27 22:33N 47°48' E 035°09'0 0.0
2015-Jun-27 21:33N 47°48' E 035°09'0 0.0
2015-Jun-27 20:33N 47°48' E 035°09'0 0.0
2015-Jun-27 19:33N 47°48' E 035°09'0 0.0
2015-Jun-27 18:33N 47°48' E 035°09'0 0.0
2015-Jun-27 17:33N 47°48' E 035°09'0 0.0
2015-Jun-27 16:33N 47°48' E 035°09'0 0.0
2015-Jun-27 15:33N 47°48' E 035°09'1 1.2
2015-Jun-27 14:33N 47°47' E 035°10'5 5.1
2015-Jun-27 13:33N 47°42' E 035°08'5 5.3
2015-Jun-27 12:33N 47°37' E 035°04'  
2015-Jun-24 16:23N 46°32' E 032°07'1 0.3
2015-Jun-24 12:24N 46°32' E 032°05'3 4.0
2015-Jun-24 11:33N 46°33' E 032°00'4 4.4
2015-Jun-24 10:34N 46°34' E 031°55'  
Track history (hours):
 
Tides and Currents Weather Stations Pressure Air Temp Water Temp Dewpoint Dewpoint Depression Visibility Wind Speed Wind Dir Waves Ship Positions

Boryslav

Last reported at 2015-Jun-28 11:12 UTC. Time now 2015-Jun-30 03:27 UTC.
Position N 48°04' E 035°06'.

Length 86 m; draft 2.3 m.

Type: Cargo ship. MMSI: 272088700.

Date/timePositionNaut miles runAvg speedWind from/ knotsBaromVisibWave heightAir tempDewpointWater temp
2015-Jun-28 11:12N 48°04' E 035°06'3 4.8
2015-Jun-28 10:33N 48°01' E 035°08'5 5.0
2015-Jun-28 09:33N 47°56' E 035°07'4 3.8
2015-Jun-28 08:33N 47°53' E 035°06'0 0.5
2015-Jun-28 07:33N 47°52' E 035°06'0 0.0
2015-Jun-28 06:34N 47°52' E 035°06'0 0.5
2015-Jun-28 05:33N 47°52' E 035°05'4 3.9
2015-Jun-28 04:33N 47°49' E 035°09'0 0.5
2015-Jun-28 03:33N 47°48' E 035°09'0 0.0
2015-Jun-28 02:33N 47°48' E 035°09'0 0.0
2015-Jun-28 01:33N 47°48' E 035°09'0 0.0
2015-Jun-28 00:33N 47°48' E 035°09'0 0.0
2015-Jun-27 23:33N 47°48' E 035°09'0 0.0
2015-Jun-27 22:33N 47°48' E 035°09'0 0.0
2015-Jun-27 21:33N 47°48' E 035°09'0 0.0
2015-Jun-27 20:33N 47°48' E 035°09'0 0.0
2015-Jun-27 19:33N 47°48' E 035°09'0 0.0
2015-Jun-27 18:33N 47°48' E 035°09'0 0.0
2015-Jun-27 17:33N 47°48' E 035°09'0 0.0
2015-Jun-27 16:33N 47°48' E 035°09'0 0.0
2015-Jun-27 15:33N 47°48' E 035°09'1 1.2
2015-Jun-27 14:33N 47°47' E 035°10'5 5.1
2015-Jun-27 13:33N 47°42' E 035°08'5 5.3
2015-Jun-27 12:33N 47°37' E 035°04'  
2015-Jun-24 16:23N 46°32' E 032°07'1 0.3
2015-Jun-24 12:24N 46°32' E 032°05'3 4.0
2015-Jun-24 11:33N 46°33' E 032°00'4 4.4
2015-Jun-24 10:34N 46°34' E 031°55'  

Dump ship's entire track history